createdAt,value
2023-07-05T06:09:06.542Z,600.00
2023-07-05T06:10:04.387Z,600.00
2023-07-05T06:11:04.426Z,600.00
2023-07-05T06:12:04.473Z,600.00
2023-07-05T06:13:04.489Z,600.00
2023-07-05T06:14:04.576Z,600.00
2023-07-05T06:15:04.575Z,510.00
2023-07-05T06:16:13.784Z,422.00
2023-07-05T06:17:05.621Z,400.00
2023-07-05T06:18:04.634Z,400.00
2023-07-05T06:19:04.559Z,400.00
2023-07-05T06:20:04.582Z,400.00
2023-07-05T06:21:04.574Z,400.00
2023-07-05T06:22:04.579Z,400.00
2023-07-05T06:23:04.554Z,400.00
2023-07-05T06:24:04.553Z,400.00
2023-07-05T06:25:04.532Z,400.00
2023-07-05T06:26:04.543Z,400.00
2023-07-05T06:27:04.516Z,400.00
2023-07-05T06:28:04.532Z,400.00
2023-07-05T06:29:04.572Z,400.00
2023-07-05T06:30:04.600Z,400.00
2023-07-05T06:31:04.654Z,400.00
2023-07-05T06:32:04.684Z,400.00
2023-07-05T06:33:04.735Z,400.00
2023-07-05T06:34:04.719Z,400.00
2023-07-05T06:35:04.752Z,400.00
2023-07-05T06:36:04.770Z,400.00
2023-07-05T06:37:04.782Z,400.00
2023-07-05T06:38:04.833Z,400.00
2023-07-05T06:39:04.854Z,400.00
2023-07-05T06:40:04.899Z,400.00
2023-07-05T06:41:04.870Z,400.00
2023-07-05T06:42:04.900Z,410.00
2023-07-05T06:43:04.943Z,438.00
2023-07-05T06:44:04.951Z,463.00
2023-07-05T06:45:04.953Z,488.00
2023-07-05T06:46:05.005Z,518.00
2023-07-05T06:47:04.966Z,548.00
2023-07-05T06:48:05.049Z,575.00
2023-07-05T06:49:05.011Z,600.00
2023-07-05T06:50:05.071Z,600.00
2023-07-05T06:51:05.046Z,601.00
2023-07-05T06:52:05.082Z,600.00
2023-07-05T06:53:23.330Z,600.00
2023-07-05T06:54:06.068Z,600.00
2023-07-05T06:55:05.057Z,595.00
2023-07-05T06:56:05.039Z,584.00
2023-07-05T06:57:05.214Z,580.00
2023-07-05T06:58:05.048Z,577.00
2023-07-05T06:59:05.002Z,603.00
2023-07-05T07:00:05.010Z,601.00
2023-07-05T07:01:05.012Z,599.00
2023-07-05T07:02:05.020Z,602.00
2023-07-05T07:03:05.044Z,601.00
2023-07-05T07:04:05.026Z,600.00
2023-07-05T07:05:05.015Z,604.00
2023-07-05T07:06:04.986Z,602.00
2023-07-05T07:07:04.992Z,600.00
2023-07-05T07:08:04.932Z,601.00
2023-07-05T07:09:04.970Z,603.00
2023-07-05T07:10:04.947Z,601.00
2023-07-05T07:11:04.976Z,600.00
2023-07-05T07:12:04.961Z,600.00
2023-07-05T07:13:04.961Z,601.00
2023-07-05T07:14:06.110Z,603.00
2023-07-05T07:15:04.922Z,601.00
2023-07-05T07:16:04.947Z,604.00
2023-07-05T07:17:04.916Z,601.00
2023-07-05T07:18:04.870Z,600.00
2023-07-05T07:19:04.875Z,600.00
2023-07-05T07:20:04.901Z,601.00
2023-07-05T07:21:04.868Z,600.00
2023-07-05T07:22:04.856Z,600.00
2023-07-05T07:23:04.842Z,600.00
2023-07-05T07:24:04.884Z,602.00
2023-07-05T07:25:04.866Z,602.00
2023-07-05T07:26:04.850Z,601.00
2023-07-05T07:27:04.889Z,602.00
2023-07-05T07:28:04.868Z,604.00
2023-07-05T07:29:04.846Z,601.00
2023-07-05T07:30:04.859Z,599.00
2023-07-05T07:31:04.876Z,600.00
2023-07-05T07:32:05.019Z,600.00
2023-07-05T07:33:04.997Z,601.00
2023-07-05T07:34:04.903Z,606.00
2023-07-05T07:35:04.875Z,602.00
2023-07-05T07:36:04.906Z,601.00
2023-07-05T07:37:04.915Z,601.00
2023-07-05T07:38:04.917Z,602.00
2023-07-05T07:39:04.898Z,601.00
2023-07-05T07:40:04.903Z,606.00
2023-07-05T07:41:04.888Z,604.00
2023-07-05T07:42:04.898Z,601.00
2023-07-05T07:43:04.882Z,604.00
2023-07-05T07:44:04.939Z,600.00
2023-07-05T07:45:04.892Z,601.00
2023-07-05T07:46:04.925Z,600.00
2023-07-05T07:47:04.889Z,601.00
2023-07-05T07:48:04.943Z,600.00
2023-07-05T07:49:04.889Z,601.00
2023-07-05T07:50:04.900Z,600.00
2023-07-05T07:51:04.878Z,600.00
2023-07-05T07:52:04.866Z,603.00
2023-07-05T07:53:04.855Z,600.00
2023-07-05T07:54:04.859Z,602.00
2023-07-05T07:55:04.869Z,606.00
2023-07-05T07:56:04.859Z,603.00
2023-07-05T07:57:04.850Z,601.00
2023-07-05T07:58:04.838Z,601.00
2023-07-05T07:59:04.819Z,600.00
2023-07-05T08:00:04.836Z,606.00
2023-07-05T08:01:04.799Z,604.00
2023-07-05T08:02:04.805Z,606.00
2023-07-05T08:03:04.935Z,602.00
2023-07-05T08:04:04.920Z,604.00
2023-07-05T08:05:05.047Z,600.00
2023-07-05T08:06:04.859Z,602.00
2023-07-05T08:07:04.847Z,600.00
2023-07-05T08:08:04.827Z,601.00
2023-07-05T08:09:04.857Z,603.00
2023-07-05T08:10:04.863Z,601.00
2023-07-05T08:11:04.877Z,601.00
2023-07-05T08:12:04.860Z,600.00
2023-07-05T08:13:04.892Z,600.00
2023-07-05T08:14:04.957Z,602.00
2023-07-05T08:15:04.886Z,603.00
2023-07-05T08:16:04.985Z,605.00
2023-07-05T08:17:04.904Z,604.00
2023-07-05T08:18:04.940Z,599.00
2023-07-05T08:19:04.954Z,605.00
2023-07-05T08:20:04.960Z,603.00
2023-07-05T08:21:04.974Z,602.00
2023-07-05T08:22:05.014Z,600.00
2023-07-05T08:23:04.997Z,602.00
2023-07-05T08:24:24.117Z,600.00
2023-07-05T08:25:05.998Z,600.00
2023-07-05T08:26:04.994Z,598.00
2023-07-05T08:27:05.012Z,592.00
2023-07-05T08:28:04.994Z,592.00
2023-07-05T08:29:04.996Z,582.00
2023-07-05T08:30:04.979Z,600.00
2023-07-05T08:31:05.029Z,601.00
2023-07-05T08:32:04.975Z,608.00
2023-07-05T08:33:04.999Z,608.00
2023-07-05T08:34:04.959Z,610.00
2023-07-05T08:35:04.942Z,606.00
2023-07-05T08:36:04.953Z,607.00
2023-07-05T08:37:04.960Z,600.00
2023-07-05T08:38:04.959Z,605.00
2023-07-05T08:39:05.011Z,604.00
2023-07-05T08:40:05.027Z,600.00
2023-07-05T08:41:05.088Z,600.00
2023-07-05T08:42:05.163Z,601.00
2023-07-05T08:43:05.202Z,601.00
2023-07-05T08:44:05.262Z,601.00
2023-07-05T08:45:05.289Z,607.00
2023-07-05T08:46:05.387Z,611.00
2023-07-05T08:47:05.396Z,613.00
2023-07-05T08:48:05.491Z,618.00
2023-07-05T08:49:05.498Z,618.00
2023-07-05T08:50:17.507Z,618.00
2023-07-05T08:51:14.488Z,618.00
2023-07-05T08:52:06.559Z,619.00
2023-07-05T08:53:05.573Z,616.00
2023-07-05T08:54:05.541Z,596.00
2023-07-05T08:55:05.549Z,588.00
2023-07-05T08:56:05.566Z,590.00
2023-07-05T08:57:05.526Z,600.00
2023-07-05T08:58:05.509Z,601.00
2023-07-05T08:59:05.503Z,600.00
2023-07-05T09:00:05.545Z,603.00
2023-07-05T09:01:05.720Z,607.00
2023-07-05T09:02:05.502Z,610.00
2023-07-05T09:03:05.562Z,612.00
2023-07-05T09:04:05.480Z,613.00
2023-07-05T09:05:05.466Z,607.00
2023-07-05T09:06:05.502Z,614.00
2023-07-05T09:07:05.448Z,619.00
2023-07-05T09:08:05.472Z,624.00
2023-07-05T09:09:05.445Z,624.00
2023-07-05T09:10:05.431Z,626.00
2023-07-05T09:11:05.456Z,632.00
2023-07-05T09:12:05.412Z,636.00
2023-07-05T09:13:05.460Z,640.00
2023-07-05T09:14:05.434Z,640.00
2023-07-05T09:15:05.444Z,629.00
2023-07-05T09:16:05.501Z,638.00
2023-07-05T09:17:05.629Z,625.00
2023-07-05T09:18:05.660Z,631.00
2023-07-05T09:19:05.645Z,632.00
2023-07-05T09:20:05.744Z,635.00
2023-07-05T09:21:05.734Z,639.00
2023-07-05T09:22:05.853Z,637.00
2023-07-05T09:23:05.838Z,632.00
2023-07-05T09:24:05.900Z,636.00
2023-07-05T09:25:05.922Z,634.00
2023-07-05T09:26:05.949Z,636.00
2023-07-05T09:27:06.014Z,642.00
2023-07-05T09:28:06.013Z,649.00
2023-07-05T09:29:06.066Z,664.00
2023-07-05T09:30:06.137Z,660.00
2023-07-05T09:31:06.152Z,668.00
2023-07-05T09:32:06.223Z,674.00
2023-07-05T09:33:06.278Z,671.00
2023-07-05T09:34:06.246Z,667.00
2023-07-05T09:35:06.287Z,669.00
2023-07-05T09:36:06.334Z,671.00
2023-07-05T09:37:06.386Z,708.00
2023-07-05T09:38:06.424Z,702.00
2023-07-05T09:39:06.440Z,696.00
2023-07-05T09:40:06.533Z,690.00
2023-07-05T09:41:06.523Z,670.00
2023-07-05T09:42:06.562Z,673.00
2023-07-05T09:43:06.594Z,683.00
2023-07-05T09:44:06.640Z,702.00
2023-07-05T09:45:06.657Z,722.00
2023-07-05T09:46:06.768Z,719.00
2023-07-05T09:47:06.720Z,707.00
2023-07-05T09:48:06.790Z,682.00
2023-07-05T09:49:06.756Z,676.00
2023-07-05T09:50:06.808Z,664.00
2023-07-05T09:51:06.844Z,660.00
2023-07-05T09:52:06.843Z,661.00
2023-07-05T09:53:06.878Z,668.00
2023-07-05T09:54:06.920Z,678.00
2023-07-05T09:55:06.958Z,690.00
2023-07-05T09:56:06.956Z,697.00
2023-07-05T09:57:07.018Z,700.00
2023-07-05T09:58:07.016Z,706.00
2023-07-05T09:59:07.185Z,722.00
2023-07-05T10:00:07.098Z,702.00
2023-07-05T10:01:07.093Z,647.00
2023-07-05T10:02:07.220Z,628.00
2023-07-05T10:03:07.255Z,626.00
2023-07-05T10:04:07.329Z,650.00
2023-07-05T10:05:07.192Z,662.00
2023-07-05T10:06:07.262Z,665.00
2023-07-05T10:07:07.272Z,679.00
2023-07-05T10:08:07.311Z,685.00
2023-07-05T10:09:07.354Z,696.00
2023-07-05T10:10:07.381Z,698.00
2023-07-05T10:11:07.397Z,695.00
2023-07-05T10:12:07.432Z,697.00
2023-07-05T10:13:07.499Z,700.00
2023-07-05T10:14:07.681Z,707.00
2023-07-05T10:15:07.530Z,708.00
2023-07-05T10:16:07.625Z,705.00
2023-07-05T10:17:08.743Z,708.00
2023-07-05T10:18:07.648Z,709.00
2023-07-05T10:19:07.647Z,701.00
2023-07-05T10:20:07.707Z,694.00
2023-07-05T10:21:07.694Z,694.00
2023-07-05T10:22:07.811Z,691.00
2023-07-05T10:23:07.744Z,691.00
2023-07-05T10:24:07.759Z,693.00
2023-07-05T10:25:07.803Z,687.00
2023-07-05T10:26:07.819Z,671.00
2023-07-05T10:27:07.834Z,663.00
2023-07-05T10:28:07.882Z,665.00
2023-07-05T10:29:07.904Z,654.00
2023-07-05T10:30:07.919Z,660.00
2023-07-05T10:31:07.896Z,652.00
2023-07-05T10:32:08.011Z,656.00
2023-07-05T10:33:07.956Z,659.00
2023-07-05T10:34:07.951Z,655.00
2023-07-05T10:35:08.023Z,654.00
2023-07-05T10:36:08.010Z,651.00
2023-07-05T10:37:08.028Z,651.00
2023-07-05T10:38:08.087Z,652.00
2023-07-05T10:39:08.036Z,653.00
2023-07-05T10:40:08.032Z,652.00
2023-07-05T10:41:08.045Z,654.00
2023-07-05T10:42:08.073Z,661.00
2023-07-05T10:43:08.074Z,657.00
2023-07-05T10:44:08.109Z,658.00
2023-07-05T10:45:08.114Z,661.00
2023-07-05T10:46:08.163Z,660.00
2023-07-05T10:47:10.353Z,660.00
2023-07-05T10:48:08.251Z,655.00
2023-07-05T10:49:08.128Z,655.00
2023-07-05T10:50:08.142Z,659.00
2023-07-05T10:51:08.174Z,661.00
2023-07-05T10:52:08.152Z,659.00
2023-07-05T10:53:08.199Z,658.00
2023-07-05T10:54:08.184Z,657.00
2023-07-05T10:55:08.182Z,657.00
2023-07-05T10:56:08.186Z,660.00
2023-07-05T10:57:08.187Z,655.00
2023-07-05T10:58:08.255Z,653.00
2023-07-05T10:59:08.237Z,649.00
2023-07-05T11:00:21.750Z,645.00
2023-07-05T11:01:09.254Z,645.00
2023-07-05T11:02:08.210Z,641.00
2023-07-05T11:03:08.234Z,644.00
2023-07-05T11:04:08.207Z,646.00
2023-07-05T11:05:08.303Z,650.00
2023-07-05T11:06:08.161Z,653.00
2023-07-05T11:07:08.191Z,659.00
2023-07-05T11:08:08.189Z,655.00
2023-07-05T11:09:09.460Z,655.00
2023-07-05T11:10:08.130Z,660.00
2023-07-05T11:11:08.124Z,670.00
2023-07-05T11:12:08.182Z,681.00
2023-07-05T11:13:08.122Z,682.00
2023-07-05T11:15:08.126Z,716.00
2023-07-05T11:16:08.159Z,742.00
2023-07-05T11:17:08.097Z,790.00
2023-07-05T11:18:08.383Z,831.00
2023-07-05T11:19:08.099Z,831.00
2023-07-05T11:20:08.080Z,819.00
2023-07-05T11:21:08.065Z,809.00
2023-07-05T11:22:08.087Z,823.00
2023-07-05T11:23:08.154Z,954.00
2023-07-05T11:24:08.185Z,975.00
2023-07-05T11:25:08.068Z,1035.00
2023-07-05T11:26:08.044Z,1166.00
2023-07-05T11:27:08.041Z,1285.00
2023-07-05T11:28:08.049Z,1341.00
2023-07-05T11:29:07.993Z,1365.00
2023-07-05T11:30:08.015Z,1368.00
2023-07-05T11:31:08.046Z,1408.00
2023-07-05T11:32:08.003Z,1469.00
2023-07-05T11:33:08.132Z,1540.00
2023-07-05T11:34:07.966Z,1559.00
2023-07-05T11:35:08.003Z,1550.00
2023-07-05T11:36:07.981Z,1522.00
2023-07-05T11:37:07.971Z,1550.00
2023-07-05T11:38:07.969Z,1597.00
2023-07-05T11:39:07.960Z,1656.00
2023-07-05T11:40:07.948Z,1723.00
2023-07-05T11:41:07.941Z,1725.00
2023-07-05T11:42:07.936Z,1728.00
2023-07-05T11:43:07.929Z,1748.00
2023-07-05T11:44:07.934Z,1754.00
2023-07-05T11:45:07.931Z,1768.00
2023-07-05T11:46:07.977Z,1773.00
2023-07-05T11:47:07.899Z,1774.00
2023-07-05T11:48:07.920Z,1778.00
2023-07-05T11:49:07.891Z,1782.00
2023-07-05T11:50:07.854Z,1787.00
2023-07-05T11:51:19.588Z,1792.00
2023-07-05T11:52:08.834Z,1793.00
2023-07-05T11:53:07.828Z,1793.00
2023-07-05T11:54:07.839Z,1794.00
2023-07-05T11:55:07.826Z,1796.00
2023-07-05T11:56:07.822Z,1795.00
2023-07-05T11:57:07.812Z,1782.00
2023-07-05T11:58:07.836Z,1785.00
2023-07-05T11:59:07.807Z,1775.00
2023-07-05T12:00:07.780Z,1773.00
2023-07-05T12:01:07.843Z,1773.00
2023-07-05T12:02:07.776Z,1763.00
2023-07-05T12:03:07.889Z,1765.00
2023-07-05T12:04:09.962Z,1763.00
2023-07-05T12:05:07.742Z,1765.00
2023-07-05T12:06:07.816Z,1755.00
2023-07-05T12:07:07.760Z,1755.00
2023-07-05T12:08:07.778Z,1739.00
2023-07-05T12:09:07.730Z,1736.00
2023-07-05T12:10:07.704Z,1731.00
2023-07-05T12:11:07.718Z,1743.00
2023-07-05T12:12:07.716Z,1746.00
2023-07-05T12:13:07.705Z,1815.00
2023-07-05T12:14:07.713Z,1807.00
2023-07-05T12:15:07.675Z,1801.00
2023-07-05T12:16:07.731Z,1792.00
2023-07-05T12:17:07.670Z,1810.00
2023-07-05T12:18:07.688Z,1800.00
2023-07-05T12:19:07.675Z,1788.00
2023-07-05T12:20:07.659Z,1776.00
2023-07-05T12:21:07.654Z,1750.00
2023-07-05T12:22:07.630Z,1736.00
2023-07-05T12:23:07.624Z,1713.00
2023-07-05T12:24:07.609Z,1684.00
2023-07-05T12:25:07.624Z,1661.00
2023-07-05T12:26:07.595Z,1642.00
2023-07-05T12:27:07.630Z,1636.00
2023-07-05T12:28:07.598Z,1611.00
2023-07-05T12:29:07.604Z,1589.00
2023-07-05T12:30:07.582Z,1585.00
2023-07-05T12:31:07.577Z,1572.00
2023-07-05T12:32:07.538Z,1563.00
2023-07-05T12:33:07.594Z,1545.00
2023-07-05T12:34:07.553Z,1550.00
2023-07-05T12:35:07.536Z,1546.00
2023-07-05T12:36:07.532Z,1537.00
2023-07-05T12:37:07.506Z,1533.00
2023-07-05T12:38:07.555Z,1527.00
2023-07-05T12:39:07.525Z,1512.00
2023-07-05T12:40:07.505Z,1516.00
2023-07-05T12:41:07.475Z,1504.00
2023-07-05T12:42:07.522Z,1494.00
2023-07-05T12:43:07.568Z,1486.00
2023-07-05T12:44:07.480Z,1478.00
2023-07-05T12:45:07.464Z,1466.00
2023-07-05T12:46:07.484Z,1464.00
2023-07-05T12:47:07.477Z,1457.00
2023-07-05T12:48:07.491Z,1454.00
2023-07-05T12:49:07.444Z,1436.00
2023-07-05T12:50:07.417Z,1424.00
2023-07-05T12:51:07.432Z,1428.00
2023-07-05T12:52:07.409Z,1422.00
2023-07-05T12:53:07.449Z,1411.00
2023-07-05T12:54:07.394Z,1412.00
2023-07-05T12:55:07.405Z,1398.00
2023-07-05T12:56:07.417Z,1390.00
2023-07-05T12:57:07.395Z,1383.00
2023-07-05T12:58:07.399Z,1376.00
2023-07-05T12:59:10.109Z,1367.00
2023-07-05T13:00:08.370Z,1368.00
2023-07-05T13:01:07.373Z,1368.00
2023-07-05T13:02:07.340Z,1357.00
2023-07-05T13:03:07.386Z,1352.00
2023-07-05T13:04:07.429Z,1339.00
2023-07-05T13:05:08.155Z,1327.00
2023-07-05T13:06:07.316Z,1329.00
2023-07-05T13:07:07.321Z,1328.00
2023-07-05T13:08:07.329Z,1333.00
2023-07-05T13:09:07.866Z,1331.00
2023-07-05T13:10:07.523Z,1325.00
2023-07-05T13:11:07.264Z,1320.00
2023-07-05T13:12:07.268Z,1313.00
2023-07-05T13:13:07.288Z,1306.00
2023-07-05T13:14:07.400Z,1304.00
2023-07-05T13:15:07.248Z,1308.00
2023-07-05T13:16:07.318Z,1299.00
2023-07-05T13:17:07.247Z,1282.00
2023-07-05T13:18:07.261Z,1275.00
2023-07-05T13:19:07.192Z,1271.00
2023-07-05T13:20:07.191Z,1262.00
2023-07-05T13:21:07.233Z,1260.00
2023-07-05T13:22:07.221Z,1259.00
2023-07-05T13:23:07.268Z,1256.00
2023-07-05T13:24:07.183Z,1255.00
2023-07-05T13:25:07.174Z,1254.00
2023-07-05T13:26:07.164Z,1246.00
2023-07-05T13:27:07.160Z,1247.00
2023-07-05T13:28:07.154Z,1235.00
2023-07-05T13:29:07.207Z,1241.00
2023-07-05T13:30:07.128Z,1237.00
2023-07-05T13:31:07.179Z,1233.00
2023-07-05T13:32:07.135Z,1220.00
2023-07-05T13:33:07.239Z,1227.00
2023-07-05T13:34:07.135Z,1229.00
2023-07-05T13:35:07.204Z,1222.00
2023-07-05T13:36:07.161Z,1212.00
2023-07-05T13:37:07.151Z,1218.00
2023-07-05T13:38:07.156Z,1219.00
2023-07-05T13:39:07.185Z,1209.00
2023-07-05T13:40:07.183Z,1207.00
2023-07-05T13:41:07.201Z,1202.00
2023-07-05T13:42:07.182Z,1189.00
2023-07-05T13:43:07.194Z,1187.00
2023-07-05T13:44:07.204Z,1182.00
2023-07-05T13:45:07.187Z,1173.00
2023-07-05T13:46:07.259Z,1170.00
2023-07-05T13:47:07.231Z,1174.00
2023-07-05T13:48:07.266Z,1165.00
2023-07-05T13:49:07.203Z,1168.00
2023-07-05T13:50:07.728Z,1146.00
2023-07-05T13:51:07.228Z,1151.00
2023-07-05T13:52:07.224Z,1141.00
2023-07-05T13:53:07.248Z,1152.00
2023-07-05T13:54:07.276Z,1149.00
2023-07-05T13:55:07.281Z,1145.00
2023-07-05T13:56:07.267Z,1149.00
2023-07-05T13:57:07.321Z,1143.00
2023-07-05T13:58:07.317Z,1136.00
2023-07-05T13:59:07.280Z,1145.00
2023-07-05T14:00:07.319Z,1131.00
2023-07-05T14:01:07.340Z,1132.00
2023-07-05T14:02:07.348Z,1128.00
2023-07-05T14:03:07.454Z,1133.00
2023-07-05T14:04:07.339Z,1126.00
2023-07-05T14:05:07.326Z,1121.00
2023-07-05T14:06:07.370Z,1117.00
2023-07-05T14:07:07.372Z,1113.00
2023-07-05T14:08:07.509Z,1116.00
2023-07-05T14:09:07.381Z,1105.00
2023-07-05T14:10:07.424Z,1111.00
2023-07-05T14:11:07.374Z,1104.00
2023-07-05T14:12:07.403Z,1102.00
2023-07-05T14:13:07.426Z,1091.00
2023-07-05T14:14:07.443Z,1091.00
2023-07-05T14:15:07.450Z,1092.00
2023-07-05T14:16:07.502Z,1099.00
2023-07-05T14:17:07.472Z,1089.00
2023-07-05T14:18:07.527Z,1088.00
2023-07-05T14:19:07.504Z,1084.00
2023-07-05T14:20:07.533Z,1080.00
2023-07-05T14:21:07.498Z,1076.00
2023-07-05T14:22:07.515Z,1071.00
2023-07-05T14:23:07.538Z,1070.00
2023-07-05T14:24:07.558Z,1066.00
2023-07-05T14:25:07.533Z,1074.00
2023-07-05T14:26:07.558Z,1067.00
2023-07-05T14:27:07.587Z,1077.00
2023-07-05T14:28:07.625Z,1071.00
2023-07-05T14:29:07.658Z,1070.00
2023-07-05T14:30:07.674Z,1071.00
2023-07-05T14:31:07.640Z,1062.00
2023-07-05T14:32:07.656Z,1060.00
2023-07-05T14:33:07.683Z,1067.00
2023-07-05T14:34:07.661Z,1071.00
2023-07-05T14:35:07.678Z,1064.00
2023-07-05T14:36:07.704Z,1070.00
2023-07-05T14:37:07.740Z,1064.00
2023-07-05T14:38:07.737Z,1064.00
2023-07-05T14:39:07.749Z,1053.00
2023-07-05T14:40:07.761Z,1069.00
2023-07-05T14:41:07.763Z,1067.00
2023-07-05T14:42:07.796Z,1069.00
2023-07-05T14:43:07.802Z,1058.00
2023-07-05T14:44:07.795Z,1056.00
2023-07-05T14:45:07.802Z,1048.00
2023-07-05T14:46:07.846Z,1041.00
2023-07-05T14:47:07.903Z,1030.00
2023-07-05T14:48:07.932Z,1041.00
2023-07-05T14:49:07.867Z,1043.00
2023-07-05T14:50:07.863Z,1037.00
2023-07-05T14:51:07.871Z,1034.00
2023-07-05T14:52:07.894Z,1014.00
2023-07-05T14:53:07.931Z,1008.00
2023-07-05T14:54:07.897Z,1014.00
2023-07-05T14:55:07.940Z,1006.00
2023-07-05T14:56:07.950Z,996.00
2023-07-05T14:57:07.938Z,998.00
2023-07-05T14:58:07.975Z,997.00
2023-07-05T14:59:07.970Z,989.00
2023-07-05T15:00:07.998Z,983.00
2023-07-05T15:01:08.037Z,973.00
2023-07-05T15:02:07.993Z,968.00
2023-07-05T15:03:08.074Z,969.00
2023-07-05T15:04:08.080Z,958.00
2023-07-05T15:05:08.061Z,946.00
2023-07-05T15:06:08.027Z,951.00
2023-07-05T15:07:08.017Z,947.00
2023-07-05T15:08:08.039Z,944.00
2023-07-05T15:09:08.031Z,947.00
2023-07-05T15:10:08.051Z,951.00
2023-07-05T15:11:08.013Z,952.00
2023-07-05T15:12:08.048Z,955.00
2023-07-05T15:13:08.063Z,949.00
2023-07-05T15:14:08.094Z,950.00
2023-07-05T15:15:08.048Z,947.00
2023-07-05T15:16:08.127Z,929.00
2023-07-05T15:17:08.062Z,945.00
2023-07-05T15:18:08.136Z,948.00
2023-07-05T15:19:08.125Z,940.00
2023-07-05T15:20:08.191Z,930.00
2023-07-05T15:21:08.151Z,932.00
2023-07-05T15:22:08.160Z,926.00
2023-07-05T15:23:08.255Z,922.00
2023-07-05T15:24:08.201Z,925.00
2023-07-05T15:25:08.189Z,921.00
2023-07-05T15:26:08.243Z,915.00
2023-07-05T15:27:08.249Z,916.00
2023-07-05T15:28:08.349Z,918.00
2023-07-05T15:29:08.240Z,921.00
2023-07-05T15:30:08.243Z,912.00
2023-07-05T15:31:08.314Z,917.00
2023-07-05T15:32:08.232Z,911.00
2023-07-05T15:33:08.303Z,914.00
2023-07-05T15:34:08.259Z,915.00
2023-07-05T15:35:08.248Z,898.00
2023-07-05T15:36:08.269Z,899.00
2023-07-05T15:37:08.291Z,899.00
2023-07-05T15:38:08.303Z,896.00
2023-07-05T15:39:08.347Z,896.00
2023-07-05T15:40:08.344Z,901.00
2023-07-05T15:41:08.392Z,903.00
2023-07-05T15:42:08.382Z,897.00
2023-07-05T15:43:08.375Z,885.00
2023-07-05T15:44:08.393Z,887.00
2023-07-05T15:45:08.428Z,890.00
2023-07-05T15:46:10.984Z,892.00
2023-07-05T15:47:08.540Z,898.00
2023-07-05T15:48:08.507Z,882.00
2023-07-05T15:49:08.381Z,891.00
2023-07-05T15:50:08.375Z,881.00
2023-07-05T15:51:08.391Z,874.00
2023-07-05T15:52:08.368Z,879.00
2023-07-05T15:53:08.369Z,874.00
2023-07-05T15:54:08.352Z,864.00
2023-07-05T15:55:08.321Z,865.00
2023-07-05T15:56:08.352Z,870.00
2023-07-05T15:57:08.345Z,855.00
2023-07-05T15:58:08.310Z,863.00
2023-07-05T15:59:08.292Z,858.00
2023-07-05T16:00:08.339Z,854.00
2023-07-05T16:01:08.385Z,853.00
2023-07-05T16:02:08.279Z,849.00
2023-07-05T16:03:11.710Z,843.00
2023-07-05T16:04:08.302Z,844.00
2023-07-05T16:05:08.284Z,846.00
2023-07-05T16:06:08.267Z,840.00
2023-07-05T16:07:08.261Z,848.00
2023-07-05T16:08:08.274Z,850.00
2023-07-05T16:09:08.250Z,842.00
2023-07-05T16:10:08.230Z,844.00
2023-07-05T16:11:08.222Z,836.00
2023-07-05T16:12:08.213Z,834.00
2023-07-05T16:13:08.240Z,830.00
2023-07-05T16:14:08.202Z,836.00
2023-07-05T16:15:08.195Z,835.00
2023-07-05T16:16:08.189Z,827.00
2023-07-05T16:17:08.229Z,829.00
2023-07-05T16:18:08.275Z,827.00
2023-07-05T16:19:08.314Z,824.00
2023-07-05T16:20:08.176Z,826.00
2023-07-05T16:21:08.160Z,831.00
2023-07-05T16:22:08.175Z,835.00
2023-07-05T16:23:08.150Z,828.00
2023-07-05T16:24:08.121Z,833.00
2023-07-05T16:25:08.124Z,830.00
2023-07-05T16:26:08.161Z,831.00
2023-07-05T16:27:08.116Z,831.00
2023-07-05T16:28:08.099Z,822.00
2023-07-05T16:29:08.120Z,822.00
2023-07-05T16:30:08.113Z,820.00
2023-07-05T16:31:08.167Z,814.00
2023-07-05T16:32:08.065Z,806.00
2023-07-05T16:33:08.102Z,812.00
2023-07-05T16:34:08.057Z,814.00
2023-07-05T16:35:08.075Z,810.00
2023-07-05T16:36:08.071Z,813.00
2023-07-05T16:37:08.051Z,808.00
2023-07-05T16:38:08.049Z,810.00
2023-07-05T16:39:08.019Z,811.00
2023-07-05T16:40:08.027Z,808.00
2023-07-05T16:41:07.991Z,806.00
2023-07-05T16:42:08.006Z,804.00
2023-07-05T16:43:08.020Z,804.00
2023-07-05T16:44:07.987Z,809.00
2023-07-05T16:45:07.969Z,808.00
2023-07-05T16:46:08.000Z,817.00
2023-07-05T16:47:07.962Z,807.00
2023-07-05T16:48:07.964Z,805.00
2023-07-05T16:49:07.970Z,802.00
2023-07-05T16:50:07.956Z,798.00
2023-07-05T16:51:07.966Z,809.00
2023-07-05T16:52:07.923Z,804.00
2023-07-05T16:53:07.907Z,794.00
2023-07-05T16:54:08.018Z,794.00
2023-07-05T16:55:07.938Z,802.00
2023-07-05T16:56:07.932Z,797.00
2023-07-05T16:57:07.906Z,796.00
2023-07-05T16:58:07.903Z,793.00
2023-07-05T16:59:07.876Z,793.00
2023-07-05T17:00:07.881Z,789.00
2023-07-05T17:01:07.851Z,784.00
2023-07-05T17:02:07.894Z,786.00
2023-07-05T17:03:07.965Z,786.00
2023-07-05T17:04:07.987Z,779.00
2023-07-05T17:05:07.858Z,782.00
2023-07-05T17:06:07.834Z,776.00
2023-07-05T17:07:07.854Z,774.00
2023-07-05T17:08:07.833Z,763.00
2023-07-05T17:09:07.803Z,764.00
2023-07-05T17:10:07.809Z,755.00
2023-07-05T17:11:07.799Z,756.00
2023-07-05T17:12:07.770Z,760.00
2023-07-05T17:13:07.791Z,761.00
2023-07-05T17:14:07.837Z,763.00
2023-07-05T17:15:07.771Z,753.00
2023-07-05T17:16:07.798Z,747.00
2023-07-05T17:17:07.768Z,745.00
2023-07-05T17:18:07.831Z,744.00
2023-07-05T17:19:07.726Z,739.00
2023-07-05T17:20:07.752Z,724.00
2023-07-05T17:21:07.735Z,724.00
2023-07-05T17:22:07.697Z,718.00
2023-07-05T17:23:07.691Z,722.00
2023-07-05T17:24:07.707Z,720.00
2023-07-05T17:25:07.669Z,720.00
2023-07-05T17:26:07.838Z,714.00
2023-07-05T17:27:07.747Z,718.00
2023-07-05T17:28:08.103Z,711.00
2023-07-05T17:29:07.630Z,712.00
2023-07-05T17:30:07.667Z,711.00
2023-07-05T17:31:07.664Z,709.00
2023-07-05T17:32:07.626Z,713.00
2023-07-05T17:33:07.684Z,706.00
2023-07-05T17:34:07.641Z,710.00
2023-07-05T17:35:07.622Z,701.00
2023-07-05T17:36:07.595Z,710.00
2023-07-05T17:37:07.605Z,701.00
2023-07-05T17:38:07.592Z,689.00
2023-07-05T17:39:07.588Z,695.00
2023-07-05T17:40:07.956Z,696.00
2023-07-05T17:41:07.600Z,708.00
2023-07-05T17:42:07.604Z,689.00
2023-07-05T17:43:07.628Z,699.00
2023-07-05T17:44:07.604Z,701.00
2023-07-05T17:45:07.615Z,696.00
2023-07-05T17:46:07.673Z,686.00
2023-07-05T17:47:07.616Z,695.00
2023-07-05T17:48:07.669Z,687.00
2023-07-05T17:49:07.654Z,695.00
2023-07-05T17:50:07.698Z,690.00
2023-07-05T17:51:07.683Z,686.00
2023-07-05T17:52:07.677Z,679.00
2023-07-05T17:53:07.734Z,676.00
2023-07-05T17:54:07.738Z,684.00
2023-07-05T17:55:07.752Z,691.00
2023-07-05T17:56:07.748Z,684.00
2023-07-05T17:57:07.739Z,679.00
2023-07-05T17:58:07.783Z,681.00
2023-07-05T17:59:07.770Z,678.00
2023-07-05T18:00:07.808Z,673.00
2023-07-05T18:01:07.836Z,679.00
2023-07-05T18:02:07.833Z,672.00
2023-07-05T18:03:07.910Z,677.00
2023-07-05T18:04:07.815Z,673.00
2023-07-05T18:05:07.845Z,674.00
2023-07-05T18:06:07.855Z,671.00
2023-07-05T18:07:07.860Z,675.00
2023-07-05T18:08:07.896Z,665.00
2023-07-05T18:09:07.854Z,676.00
2023-07-05T18:10:07.950Z,667.00
2023-07-05T18:11:07.905Z,664.00
2023-07-05T18:12:07.907Z,662.00
2023-07-05T18:13:07.929Z,668.00
2023-07-05T18:14:08.035Z,662.00
2023-07-05T18:15:07.973Z,665.00
2023-07-05T18:16:08.063Z,664.00
2023-07-05T18:17:08.003Z,665.00
2023-07-05T18:18:08.037Z,662.00
2023-07-05T18:19:08.025Z,665.00
2023-07-05T18:20:08.043Z,668.00
2023-07-05T18:21:08.038Z,662.00
2023-07-05T18:22:08.045Z,665.00
2023-07-05T18:23:08.073Z,662.00
2023-07-05T18:24:08.112Z,662.00
2023-07-05T18:25:08.098Z,661.00
2023-07-05T18:26:08.149Z,659.00
2023-07-05T18:27:08.154Z,657.00
2023-07-05T18:28:08.171Z,662.00
2023-07-05T18:29:08.169Z,663.00
2023-07-05T18:30:08.179Z,658.00
2023-07-05T18:31:08.223Z,661.00